Time;durP1;ratioP1;P1;durP2;ratioP2;P2;SDS_P1;SDS_P2;PMS_P1;PMS_P2;Temp;Humidity;BMP_temperature;BMP_pressure;BME280_temperature;BME280_humidity;BME280_pressure;Samples;Min_cycle;Max_cycle;Signal;HPM_P1;HPM_P2
2022/11/07 00:00:26;;;;;;;4.93;1.42;;;7.10;99.90;;;;;;5113396;28;20552;-49
2022/11/07 00:02:54;;;;;;;3.20;1.55;;;7.10;99.90;;;;;;5117488;27;20097;-49
2022/11/07 00:05:21;;;;;;;6.35;2.10;;;7.10;99.90;;;;;;5107045;28;20672;-49
2022/11/07 00:07:48;;;;;;;5.38;1.85;;;7.20;99.90;;;;;;5108354;28;20089;-51
2022/11/07 00:10:15;;;;;;;4.53;2.08;;;7.20;99.90;;;;;;5111093;28;20110;-53
2022/11/07 00:12:42;;;;;;;3.28;1.88;;;7.20;99.90;;;;;;5115308;27;20392;-49
2022/11/07 00:15:09;;;;;;;2.00;1.52;;;7.10;99.90;;;;;;5112028;28;20059;-50
2022/11/07 00:17:36;;;;;;;4.15;1.67;;;7.20;99.90;;;;;;5112127;28;20560;-50
2022/11/07 00:20:03;;;;;;;3.72;2.00;;;7.30;99.90;;;;;;5111176;28;20103;-50
2022/11/07 00:22:30;;;;;;;4.50;1.65;;;7.20;99.90;;;;;;5104579;28;20445;-50
2022/11/07 00:24:56;;;;;;;2.17;1.50;;;7.10;99.90;;;;;;5106617;28;20827;-49
2022/11/07 00:27:23;;;;;;;4.05;2.05;;;7.20;99.90;;;;;;5109570;28;20044;-49
2022/11/07 00:29:50;;;;;;;1.88;1.25;;;7.20;99.90;;;;;;5110863;28;20046;-49
2022/11/07 00:32:17;;;;;;;3.03;1.85;;;7.20;99.90;;;;;;5110525;28;20043;-50
2022/11/07 00:34:43;;;;;;;3.90;1.90;;;7.20;99.90;;;;;;5111873;28;20074;-50
2022/11/07 00:37:10;;;;;;;1.88;1.42;;;7.20;99.90;;;;;;5099205;28;20051;-49
2022/11/07 00:39:37;;;;;;;2.95;1.63;;;7.20;99.90;;;;;;5111813;28;20075;-50
2022/11/07 00:42:04;;;;;;;2.92;1.90;;;7.30;99.90;;;;;;5111554;28;20487;-50
2022/11/07 00:44:30;;;;;;;4.22;2.20;;;7.30;99.90;;;;;;5108979;28;20036;-50
2022/11/07 00:46:57;;;;;;;3.85;1.88;;;7.30;99.90;;;;;;5111874;28;20567;-50
2022/11/07 00:49:24;;;;;;;4.53;1.80;;;7.30;99.90;;;;;;5108357;28;20067;-49
2022/11/07 00:51:50;;;;;;;6.43;1.95;;;7.40;99.90;;;;;;5111141;28;20487;-50
2022/11/07 00:54:17;;;;;;;5.07;2.05;;;7.30;99.90;;;;;;5111736;28;20092;-49
2022/11/07 00:56:44;;;;;;;3.92;1.95;;;7.40;99.90;;;;;;5110626;28;20040;-52
2022/11/07 00:59:11;;;;;;;3.83;2.15;;;7.30;99.90;;;;;;5111478;28;20039;-49
2022/11/07 01:01:39;;;;;;;3.13;2.00;;;7.40;99.90;;;;;;5110386;28;20073;-51
2022/11/07 01:06:51;;;;;;;4.28;2.10;;;7.30;99.90;;;;;;5111560;28;20060;-49
2022/11/07 01:09:20;;;;;;;3.10;1.88;;;7.30;99.90;;;;;;5111149;28;20518;-49
2022/11/07 01:11:47;;;;;;;6.93;1.90;;;7.30;99.90;;;;;;5098263;22;20107;-51
2022/11/07 01:14:15;;;;;;;;;;;7.30;99.90;;;;;;5058223;28;20045;-47
2022/11/07 01:16:42;;;;;;;6.30;2.15;;;7.30;99.90;;;;;;5050999;28;19975;-48
2022/11/07 01:19:09;;;;;;;;;;;7.30;99.90;;;;;;5057514;28;20052;-50
2022/11/07 01:21:39;;;;;;;2.97;1.65;;;7.30;99.90;;;;;;5058548;28;19952;-49
2022/11/07 01:24:07;;;;;;;3.78;2.08;;;7.30;99.90;;;;;;5045226;28;20123;-49
2022/11/07 01:26:36;;;;;;;3.72;1.85;;;7.40;99.90;;;;;;5050624;28;20513;-48
2022/11/07 01:29:04;;;;;;;2.72;1.58;;;7.30;99.90;;;;;;5050629;28;20107;-51
2022/11/07 01:31:31;;;;;;;2.70;1.63;;;7.30;99.90;;;;;;5046830;28;20099;-51
2022/11/07 01:33:59;;;;;;;3.70;2.33;;;7.30;99.90;;;;;;5054963;28;20098;-50
2022/11/07 01:36:26;;;;;;;3.58;1.75;;;7.30;99.90;;;;;;5052211;28;20610;-51
2022/11/07 01:38:53;;;;;;;2.45;1.90;;;7.30;99.90;;;;;;5054336;28;20552;-49
2022/11/07 01:41:24;;;;;;;3.28;2.17;;;7.30;99.90;;;;;;5044284;28;20077;-49
2022/11/07 01:44:23;;;;;;;4.70;2.58;;;7.30;99.90;;;;;;5045340;28;20082;-50
2022/11/07 01:46:53;;;;;;;4.25;1.98;;;7.10;99.90;;;;;;5054849;28;20444;-50
2022/11/07 01:49:20;;;;;;;6.50;2.67;;;7.10;99.90;;;;;;5054536;28;20095;-48
2022/11/07 01:51:51;;;;;;;4.88;2.28;;;7.10;99.90;;;;;;5054446;28;20041;-49
2022/11/07 01:54:21;;;;;;;4.22;2.15;;;7.10;99.90;;;;;;5048858;28;20068;-51
2022/11/07 01:56:49;;;;;;;4.60;2.30;;;7.10;99.90;;;;;;5047152;28;20102;-49
2022/11/07 01:59:20;;;;;;;4.00;2.22;;;7.10;99.90;;;;;;5039852;28;20042;-50
2022/11/07 02:01:47;;;;;;;7.38;2.10;;;7.10;99.90;;;;;;5042630;28;20045;-48
2022/11/07 02:04:16;;;;;;;3.95;2.22;;;7.00;99.90;;;;;;5050320;28;20099;-50
2022/11/07 02:06:49;;;;;;;3.90;2.10;;;7.00;99.90;;;;;;5052725;28;20103;-48
2022/11/07 02:09:16;;;;;;;4.32;2.35;;;6.90;99.90;;;;;;5046285;28;20075;-49
2022/11/07 02:11:43;;;;;;;5.95;2.17;;;6.90;99.90;;;;;;5053496;28;20045;-49
2022/11/07 02:14:17;;;;;;;4.28;2.25;;;6.90;99.90;;;;;;5054067;28;20098;-49
2022/11/07 02:16:44;;;;;;;4.82;2.50;;;6.80;99.90;;;;;;5051161;28;20460;-48
2022/11/07 02:19:20;;;;;;;;;;;6.70;99.90;;;;;;5054537;28;20044;-50
2022/11/07 02:22:02;;;;;;;5.18;2.30;;;6.70;99.90;;;;;;5053542;28;19974;-48
2022/11/07 02:24:31;;;;;;;4.95;2.58;;;6.70;99.90;;;;;;5054224;28;20041;-48
2022/11/07 02:27:03;;;;;;;4.57;2.30;;;6.60;99.90;;;;;;5050666;28;20069;-49
2022/11/07 02:29:31;;;;;;;4.15;2.20;;;6.60;99.90;;;;;;5054198;28;20480;-49
2022/11/07 02:32:07;;;;;;;5.00;2.92;;;6.50;99.90;;;;;;5051833;28;20098;-50
2022/11/07 02:34:34;;;;;;;3.65;2.33;;;6.50;99.90;;;;;;5054033;28;20099;-48
2022/11/07 02:37:05;;;;;;;4.00;2.80;;;6.40;99.90;;;;;;5054046;28;20069;-49
2022/11/07 02:39:32;;;;;;;4.80;2.42;;;6.40;99.90;;;;;;5053043;28;20087;-48
2022/11/07 02:42:00;;;;;;;5.13;2.70;;;6.40;99.90;;;;;;5047846;28;20069;-52
2022/11/07 02:44:28;;;;;;;4.72;2.88;;;6.30;99.90;;;;;;5033470;28;20473;-48
2022/11/07 02:46:55;;;;;;;4.75;2.78;;;6.30;99.90;;;;;;5033993;28;20073;-52
2022/11/07 02:49:22;;;;;;;;;;;6.30;99.90;;;;;;5042718;28;20465;-48
2022/11/07 02:51:49;;;;;;;5.03;2.53;;;6.20;99.90;;;;;;5053092;28;19956;-49
2022/11/07 02:54:15;;;;;;;5.63;2.80;;;6.20;99.90;;;;;;5053349;28;20065;-49
2022/11/07 02:56:42;;;;;;;4.63;2.85;;;6.10;99.90;;;;;;5044105;28;20073;-49
2022/11/07 02:59:09;;;;;;;4.47;2.60;;;6.20;99.90;;;;;;5053426;28;20071;-50
2022/11/07 03:01:35;;;;;;;8.32;2.95;;;6.10;99.90;;;;;;5052036;28;20082;-48
2022/11/07 03:04:02;;;;;;;4.28;2.47;;;6.10;99.90;;;;;;5038639;28;20045;-52
2022/11/07 03:06:29;;;;;;;5.30;2.28;;;6.00;99.90;;;;;;5051093;28;20107;-50
2022/11/07 03:08:56;;;;;;;3.50;2.47;;;6.00;99.90;;;;;;5052567;28;20519;-49
2022/11/07 03:11:23;;;;;;;4.90;2.67;;;6.10;99.90;;;;;;5049020;28;20093;-47
2022/11/07 03:13:50;;;;;;;5.68;2.38;;;6.10;99.90;;;;;;5045445;28;20140;-49
2022/11/07 03:16:18;;;;;;;3.15;2.22;;;6.20;99.90;;;;;;5052972;28;20033;-48
2022/11/07 03:18:45;;;;;;;3.55;2.00;;;6.20;99.90;;;;;;5053108;28;20049;-51
2022/11/07 03:21:12;;;;;;;3.33;2.08;;;6.10;99.90;;;;;;5039289;28;20076;-52
2022/11/07 03:23:39;;;;;;;5.50;2.22;;;6.10;99.90;;;;;;5049169;28;20128;-49
2022/11/07 03:26:06;;;;;;;5.20;2.15;;;6.00;99.90;;;;;;5032736;28;20053;-51
2022/11/07 03:28:32;;;;;;;4.10;1.83;;;5.90;99.90;;;;;;5033175;28;20073;-48
2022/11/07 03:31:01;;;;;;;3.70;2.17;;;5.90;99.90;;;;;;5041435;28;20124;-50
2022/11/07 03:33:29;;;;;;;6.47;2.22;;;5.80;99.90;;;;;;5042767;28;20042;-49
2022/11/07 03:35:55;;;;;;;5.50;2.60;;;5.80;99.90;;;;;;5037322;28;20123;-51
2022/11/07 03:38:22;;;;;;;3.08;2.38;;;5.80;99.90;;;;;;5052639;28;20075;-48
2022/11/07 03:40:49;;;;;;;5.65;2.60;;;5.90;99.90;;;;;;5051696;28;20068;-48
2022/11/07 03:43:15;;;;;;;5.57;1.80;;;5.90;99.90;;;;;;5047666;28;20555;-49
2022/11/07 03:45:43;;;;;;;;;;;5.80;99.90;;;;;;5049287;28;20051;-49
2022/11/07 03:48:09;;;;;;;4.90;1.70;;;5.70;99.90;;;;;;5032854;28;20419;-50
2022/11/07 03:50:36;;;;;;;3.22;1.85;;;5.70;99.90;;;;;;5032523;28;20064;-48
2022/11/07 03:53:03;;;;;;;3.22;1.92;;;5.70;99.90;;;;;;5032016;28;20045;-52
2022/11/07 03:55:29;;;;;;;3.03;1.83;;;5.60;99.90;;;;;;5041129;28;20128;-49
2022/11/07 03:57:56;;;;;;;5.63;1.92;;;5.60;99.90;;;;;;5048837;28;20041;-48
2022/11/07 04:00:23;;;;;;;11.73;6.70;;;5.60;99.90;;;;;;5047988;28;20065;-51
2022/11/07 04:02:49;;;;;;;2.97;1.75;;;5.50;99.90;;;;;;5051146;28;20083;-51
2022/11/07 04:05:16;;;;;;;3.05;1.70;;;5.50;99.90;;;;;;5052212;28;20045;-48
2022/11/07 04:07:43;;;;;;;4.55;1.20;;;5.50;99.90;;;;;;5044891;28;20128;-48
2022/11/07 04:10:10;;;;;;;3.38;1.90;;;5.40;99.90;;;;;;5034337;28;20472;-49
2022/11/07 04:18:08;;;;;;;3.33;1.67;;;5.20;99.90;;;;;;5046953;28;20045;-49
2022/11/07 04:20:34;;;;;;;2.53;1.55;;;5.10;99.90;;;;;;5052638;28;20064;-48
2022/11/07 04:23:01;;;;;;;2.85;0.90;;;5.10;99.90;;;;;;5055131;28;20501;-50
2022/11/07 04:28:15;;;;;;;3.97;0.98;;;5.00;99.90;;;;;;5060243;28;20501;-50
2022/11/07 04:30:42;;;;;;;3.83;1.05;;;5.00;99.90;;;;;;5056433;28;20135;-49
2022/11/07 04:33:08;;;;;;;3.03;1.67;;;4.90;99.90;;;;;;5061205;28;20109;-52
2022/11/07 04:35:35;;;;;;;5.53;1.52;;;4.90;99.90;;;;;;5053747;28;20505;-48
2022/11/07 04:38:02;;;;;;;2.88;1.38;;;4.90;99.90;;;;;;5060924;28;20041;-48
2022/11/07 04:40:29;;;;;;;2.53;1.27;;;4.90;99.90;;;;;;5060731;28;20142;-49
2022/11/07 04:42:56;;;;;;;1.95;1.23;;;4.90;99.90;;;;;;5045167;28;20068;-52
2022/11/07 04:45:23;;;;;;;6.47;1.33;;;4.80;99.90;;;;;;5051097;28;20456;-48
2022/11/07 04:47:49;;;;;;;1.33;0.70;;;4.70;99.90;;;;;;5054902;28;20071;-49
2022/11/07 04:50:18;;;;;;;3.75;1.77;;;4.70;99.90;;;;;;5063502;28;20064;-48
2022/11/07 04:52:45;;;;;;;1.92;1.15;;;4.60;99.90;;;;;;5042562;28;20056;-52
2022/11/07 04:55:21;;;;;;;3.15;1.92;;;4.50;99.90;;;;;;5055165;28;20083;-48
2022/11/07 04:57:48;;;;;;;5.00;1.98;;;4.40;99.90;;;;;;5057495;28;20072;-50
2022/11/07 05:00:16;;;;;;;4.45;1.92;;;4.40;99.90;;;;;;5045597;28;20085;-48
2022/11/07 05:02:44;;;;;;;3.03;1.80;;;4.30;99.90;;;;;;5050123;28;20128;-49
2022/11/07 05:05:11;;;;;;;3.78;1.55;;;4.10;99.90;;;;;;5051110;28;20409;-48
2022/11/07 05:07:38;;;;;;;;;;;4.10;99.90;;;;;;5036810;28;20107;-48
2022/11/07 05:10:07;;;;;;;4.53;1.55;;;4.20;99.90;;;;;;5047949;28;19929;-49
2022/11/07 05:12:38;;;;;;;6.70;2.85;;;4.20;99.90;;;;;;5031886;28;20065;-48
2022/11/07 05:15:05;;;;;;;5.55;2.70;;;4.20;99.90;;;;;;5050268;28;20490;-49
2022/11/07 05:17:32;;;;;;;8.27;3.78;;;4.20;99.90;;;;;;5047174;28;20072;-48
2022/11/07 05:19:59;;;;;;;8.60;3.80;;;4.20;99.90;;;;;;5048925;28;20037;-49
2022/11/07 05:25:10;;;;;;;4.38;1.05;;;4.30;99.90;;;;;;5049714;28;20099;-47
2022/11/07 05:27:37;;;;;;;2.72;1.60;;;4.20;99.90;;;;;;5040123;28;20041;-51
2022/11/07 05:30:05;;;;;;;1.48;0.85;;;4.10;99.90;;;;;;5044885;28;20115;-51
2022/11/07 05:32:36;;;;;;;2.17;1.48;;;4.10;99.90;;;;;;5048403;28;20472;-49
2022/11/07 05:35:04;;;;;;;2.17;1.30;;;4.10;99.90;;;;;;5045956;28;20059;-49
2022/11/07 05:37:31;;;;;;;3.22;1.30;;;4.00;99.90;;;;;;5047034;28;20591;-50
2022/11/07 05:39:58;;;;;;;5.45;1.83;;;4.10;99.90;;;;;;5031076;28;20041;-50
2022/11/07 05:42:25;;;;;;;1.98;1.40;;;4.10;99.90;;;;;;5036741;28;20071;-48
2022/11/07 05:44:51;;;;;;;2.97;1.77;;;4.10;99.90;;;;;;5050378;28;20378;-48
2022/11/07 05:47:18;;;;;;;6.20;3.08;;;4.20;99.90;;;;;;5050037;28;20115;-48
2022/11/07 05:49:45;;;;;;;4.55;1.95;;;4.20;99.90;;;;;;5050647;28;20077;-49
2022/11/07 05:52:11;;;;;;;5.40;1.80;;;4.30;99.90;;;;;;5031522;28;20088;-49
2022/11/07 05:54:38;;;;;;;1.58;1.05;;;4.20;99.90;;;;;;5039848;28;20116;-50
2022/11/07 05:57:05;;;;;;;4.00;2.80;;;4.20;99.90;;;;;;5030901;28;20045;-52
2022/11/07 05:59:31;;;;;;;4.30;2.70;;;4.20;99.90;;;;;;5039805;28;20520;-48
2022/11/07 06:01:58;;;;;;;3.47;2.13;;;4.30;99.90;;;;;;5044117;28;20065;-49
2022/11/07 06:04:25;;;;;;;4.70;3.20;;;4.30;99.90;;;;;;5047288;28;20067;-49
2022/11/07 06:06:51;;;;;;;6.03;3.47;;;4.40;99.90;;;;;;5048792;28;20077;-48
2022/11/07 06:09:18;;;;;;;5.80;3.22;;;4.40;99.90;;;;;;5038671;28;20057;-52
2022/11/07 06:11:45;;;;;;;26.77;12.18;;;4.40;99.90;;;;;;5038413;28;20057;-48
2022/11/07 06:14:12;;;;;;;35.33;17.00;;;4.40;99.90;;;;;;5049046;28;20068;-52
2022/11/07 06:16:38;;;;;;;10.00;4.90;;;4.40;99.90;;;;;;5048453;28;20375;-52
2022/11/07 06:19:05;;;;;;;9.40;3.53;;;4.40;99.90;;;;;;5052592;28;20079;-48
2022/11/07 06:21:33;;;;;;;7.30;3.35;;;4.20;99.90;;;;;;5052217;28;20094;-49
2022/11/07 06:24:00;;;;;;;12.88;7.20;;;4.10;99.90;;;;;;5047821;28;20061;-48
2022/11/07 06:26:27;;;;;;;31.92;12.73;;;4.50;99.90;;;;;;5053409;28;20049;-49
2022/11/07 06:28:54;;;;;;;14.07;6.70;;;4.50;99.90;;;;;;5053508;28;20087;-51
2022/11/07 06:31:21;;;;;;;11.50;4.65;;;4.50;99.90;;;;;;5043973;28;20041;-48
2022/11/07 06:33:49;;;;;;;17.60;5.57;;;4.50;99.90;;;;;;5053613;28;20067;-51
2022/11/07 06:36:16;;;;;;;8.48;4.72;;;4.50;99.90;;;;;;5034994;28;20520;-49
2022/11/07 06:38:43;;;;;;;6.97;4.10;;;4.50;99.90;;;;;;5048803;28;20489;-49
2022/11/07 06:41:12;;;;;;;2.92;1.77;;;4.50;99.90;;;;;;5053157;28;20072;-49
2022/11/07 06:43:39;;;;;;;4.80;2.72;;;4.50;99.90;;;;;;5053312;28;20044;-49
2022/11/07 06:46:09;;;;;;;6.93;3.28;;;4.40;99.90;;;;;;5049877;28;20079;-50
2022/11/07 06:48:36;;;;;;;6.15;3.28;;;4.40;99.90;;;;;;5045449;28;20627;-50
2022/11/07 06:51:04;;;;;;;5.38;2.95;;;4.30;99.90;;;;;;5052863;28;20072;-48
2022/11/07 06:53:31;;;;;;;7.18;3.25;;;4.30;99.90;;;;;;5052740;28;20069;-48
2022/11/07 06:55:59;;;;;;;10.70;4.20;;;4.30;99.90;;;;;;5046740;28;20065;-49
2022/11/07 06:58:26;;;;;;;11.25;4.80;;;4.30;99.90;;;;;;5042322;28;20130;-50
2022/11/07 07:00:57;;;;;;;12.38;5.30;;;4.30;99.90;;;;;;5052622;28;20061;-49
2022/11/07 07:03:24;;;;;;;12.68;5.75;;;4.40;99.90;;;;;;5052840;28;20037;-51
2022/11/07 07:05:50;;;;;;;11.02;4.75;;;4.40;99.90;;;;;;5049924;28;20300;-48
2022/11/07 07:08:17;;;;;;;9.60;5.13;;;4.40;99.90;;;;;;5036280;28;20037;-50
2022/11/07 07:11:15;;;;;;;10.38;3.97;;;4.40;99.90;;;;;;5045088;28;20400;-91
2022/11/07 07:13:42;;;;;;;4.17;3.20;;;4.50;99.90;;;;;;5003300;28;20041;-49
2022/11/07 07:16:18;;;;;;;6.13;3.65;;;4.40;99.90;;;;;;5031989;28;20041;-56
2022/11/07 07:18:45;;;;;;;6.07;3.33;;;4.50;99.90;;;;;;5033008;28;20046;-50
2022/11/07 07:21:13;;;;;;;7.13;3.47;;;4.50;99.90;;;;;;5024916;28;20080;-50
2022/11/07 07:23:40;;;;;;;4.65;3.20;;;4.50;99.90;;;;;;5042944;28;20037;-50
2022/11/07 07:26:11;;;;;;;5.32;3.40;;;4.60;99.90;;;;;;5052792;28;20076;-50
2022/11/07 07:28:38;;;;;;;8.15;3.20;;;4.60;99.90;;;;;;5032004;28;20100;-52
2022/11/07 07:31:14;;;;;;;5.35;3.22;;;4.60;99.90;;;;;;5029508;28;20054;-51
2022/11/07 07:33:42;;;;;;;9.95;3.28;;;4.50;99.90;;;;;;5010568;28;20514;-51
2022/11/07 07:36:10;;;;;;;5.38;3.13;;;4.60;99.90;;;;;;5012799;28;20046;-52
2022/11/07 07:38:42;;;;;;;8.10;4.30;;;4.60;99.90;;;;;;5048186;28;20029;-51
2022/11/07 07:41:09;;;;;;;14.63;5.80;;;4.60;99.90;;;;;;5034072;28;20064;-52
2022/11/07 07:43:36;;;;;;;7.78;4.18;;;4.60;99.90;;;;;;5047464;28;20454;-50
2022/11/07 07:46:06;;;;;;;5.28;3.40;;;4.60;99.90;;;;;;5040191;28;20084;-50
2022/11/07 07:48:33;;;;;;;5.20;3.80;;;4.80;99.90;;;;;;5051406;28;20076;-52
2022/11/07 07:51:00;;;;;;;8.43;3.13;;;4.90;99.90;;;;;;5051491;28;20095;-50
2022/11/07 07:53:27;;;;;;;7.50;3.10;;;5.20;99.90;;;;;;5039318;28;20036;-51
2022/11/07 07:55:58;;;;;;;4.00;1.75;;;5.30;99.90;;;;;;5052332;28;20128;-50
2022/11/07 07:58:26;;;;;;;8.07;4.00;;;5.50;99.90;;;;;;5052415;28;20048;-50
2022/11/07 08:00:56;;;;;;;16.63;6.32;;;5.60;99.90;;;;;;5043594;28;20033;-51
2022/11/07 08:03:24;;;;;;;15.45;6.22;;;5.70;99.90;;;;;;5051715;28;20037;-50
2022/11/07 08:06:00;;;;;;;20.85;7.90;;;5.80;99.90;;;;;;5051955;28;20045;-51
2022/11/07 08:08:26;;;;;;;10.45;3.72;;;5.80;99.90;;;;;;5039804;28;20081;-51
2022/11/07 08:11:00;;;;;;;4.95;2.83;;;5.80;99.90;;;;;;5046479;28;20045;-52
2022/11/07 08:13:27;;;;;;;7.10;2.83;;;6.00;99.90;;;;;;5043421;28;20489;-50
2022/11/07 08:15:53;;;;;;;7.45;2.78;;;6.10;99.90;;;;;;5050431;28;20073;-49
2022/11/07 08:18:21;;;;;;;3.83;1.73;;;6.20;99.90;;;;;;5051037;28;20120;-49
2022/11/07 08:20:49;;;;;;;4.88;2.50;;;6.40;99.90;;;;;;5041067;28;20056;-50
2022/11/07 08:23:17;;;;;;;5.95;2.78;;;6.50;99.90;;;;;;5023640;28;20584;-50
2022/11/07 08:25:52;;;;;;;4.22;2.33;;;6.70;99.90;;;;;;5013666;28;20119;-51
2022/11/07 08:28:20;;;;;;;4.75;2.10;;;6.70;99.90;;;;;;5030606;28;20099;-50
2022/11/07 08:31:01;;;;;;;2.88;2.35;;;6.80;99.90;;;;;;5050364;28;20501;-49
2022/11/07 08:33:29;;;;;;;5.15;2.03;;;6.90;99.90;;;;;;5051587;28;20490;-50
2022/11/07 08:35:57;;;;;;;;;;;7.00;99.90;;;;;;5035399;28;20390;-54
2022/11/07 08:38:24;;;;;;;6.30;2.10;;;7.00;99.90;;;;;;5014799;28;19980;-50
2022/11/07 08:40:51;;;;;;;5.35;2.80;;;7.10;99.90;;;;;;5011574;28;20070;-50
2022/11/07 08:43:19;;;;;;;4.70;2.17;;;7.20;99.90;;;;;;5027202;28;20497;-51
2022/11/07 08:45:47;;;;;;;4.95;2.40;;;7.20;99.90;;;;;;5051406;28;20079;-51
2022/11/07 08:48:15;;;;;;;6.47;2.58;;;7.20;99.90;;;;;;5051135;28;20107;-50
2022/11/07 08:50:42;;;;;;;5.50;2.88;;;7.20;99.90;;;;;;5040852;28;20091;-51
2022/11/07 08:53:09;;;;;;;4.68;2.40;;;6.10;99.90;;;;;;5046098;28;20067;-50
2022/11/07 08:55:36;;;;;;;5.32;2.67;;;7.40;99.90;;;;;;5050836;28;20145;-50
2022/11/07 08:58:07;;;;;;;3.20;1.90;;;7.50;99.90;;;;;;5051203;28;20045;-50
2022/11/07 09:00:35;;;;;;;3.00;2.00;;;7.60;99.90;;;;;;5045108;28;20050;-50
2022/11/07 09:03:04;;;;;;;2.67;1.95;;;7.80;99.90;;;;;;5050690;28;20044;-49
2022/11/07 09:05:51;;;;;;;3.38;1.63;;;7.90;99.90;;;;;;5050951;28;20053;-52
2022/11/07 09:08:18;;;;;;;4.15;1.77;;;8.10;99.90;;;;;;5046078;28;20115;-50
2022/11/07 09:10:45;;;;;;;;;;;8.10;99.90;;;;;;5011817;28;20041;-50
2022/11/07 09:13:13;;;;;;;4.25;1.52;;;8.30;99.90;;;;;;5009932;28;19968;-51
2022/11/07 09:15:41;;;;;;;3.05;1.67;;;8.40;99.90;;;;;;5011362;28;20041;-50
2022/11/07 09:18:15;;;;;;;3.97;2.30;;;8.50;99.90;;;;;;5028828;28;20417;-51
2022/11/07 09:20:41;;;;;;;2.95;2.15;;;8.60;99.90;;;;;;5051104;28;20065;-51
2022/11/07 09:23:08;;;;;;;3.72;1.77;;;8.70;99.90;;;;;;5050305;28;20049;-52
2022/11/07 09:25:35;;;;;;;3.42;1.98;;;8.70;99.90;;;;;;5043584;28;20121;-52
2022/11/07 09:28:02;;;;;;;4.00;2.08;;;8.70;99.90;;;;;;5045046;28;20049;-51
2022/11/07 09:30:29;;;;;;;4.25;2.17;;;8.80;99.90;;;;;;5050004;28;20057;-52
2022/11/07 09:32:56;;;;;;;3.10;1.50;;;8.90;99.90;;;;;;5046224;28;20052;-50
2022/11/07 09:35:22;;;;;;;4.75;1.83;;;8.90;99.90;;;;;;5047403;28;20080;-51
2022/11/07 09:37:50;;;;;;;3.72;2.13;;;8.90;99.90;;;;;;5050639;28;20076;-52
2022/11/07 09:40:54;;;;;;;5.10;1.90;;;9.00;99.90;;;;;;5051065;28;20037;-52
2022/11/07 09:43:47;;;;;;;3.25;1.65;;;9.00;99.90;;;;;;5039751;28;20099;-51
2022/11/07 09:46:44;;;;;;;1.98;1.30;;;9.00;99.90;;;;;;5035268;28;20484;-50
2022/11/07 09:49:41;;;;;;;7.22;1.65;;;9.00;99.90;;;;;;5050976;28;20084;-52
2022/11/07 09:52:18;;;;;;;7.38;1.80;;;9.10;99.90;;;;;;5032777;28;20498;-52
2022/11/07 09:55:15;;;;;;;4.72;1.73;;;9.20;99.90;;;;;;5033633;28;20068;-54
2022/11/07 09:57:41;;;;;;;1.98;1.42;;;9.40;99.90;;;;;;5014207;28;20545;-51
2022/11/07 10:00:17;;;;;;;2.35;1.35;;;9.40;99.90;;;;;;5014244;28;20049;-53
2022/11/07 10:02:51;;;;;;;3.03;1.33;;;9.40;99.90;;;;;;5046992;28;20063;-50
2022/11/07 10:05:22;;;;;;;2.17;1.30;;;9.50;99.90;;;;;;5054278;28;20068;-51
2022/11/07 10:08:12;;;;;;;4.85;1.40;;;9.50;99.90;;;;;;5054522;28;20041;-50
2022/11/07 10:10:49;;;;;;;2.25;1.35;;;9.50;99.90;;;;;;5033101;28;20839;-48
2022/11/07 10:13:51;;;;;;;2.08;1.10;;;9.60;99.90;;;;;;5037385;28;20124;-50
2022/11/07 10:16:43;;;;;;;2.25;1.23;;;9.70;99.90;;;;;;5030204;28;20120;-53
2022/11/07 10:19:19;;;;;;;1.85;1.10;;;9.80;99.90;;;;;;5030579;28;20096;-50
2022/11/07 10:22:19;;;;;;;1.92;1.25;;;9.90;99.90;;;;;;5025766;28;20034;-51
2022/11/07 10:25:48;;;;;;;1.98;1.10;;;9.90;99.90;;;;;;5034046;28;20041;-51
2022/11/07 10:28:18;;;;;;;2.30;1.30;;;10.00;99.90;;;;;;4998044;28;20089;-51
2022/11/07 10:30:49;;;;;;;3.05;1.30;;;10.10;99.90;;;;;;4995769;28;20102;-53
2022/11/07 10:33:32;;;;;;;2.05;1.23;;;10.20;99.90;;;;;;5029379;28;20115;-50
2022/11/07 10:36:10;;;;;;;3.78;1.38;;;10.30;99.90;;;;;;5048559;28;20091;-54
2022/11/07 10:38:39;;;;;;;;;;;10.40;99.90;;;;;;5053148;28;20122;-50
2022/11/07 10:41:18;;;;;;;3.95;1.20;;;10.40;99.90;;;;;;5053208;28;19921;-51
2022/11/07 10:44:07;;;;;;;2.38;1.40;;;10.60;99.90;;;;;;5053908;28;20049;-51
2022/11/07 10:46:43;;;;;;;4.65;1.70;;;10.60;99.90;;;;;;5045400;28;20240;-51
2022/11/07 10:49:19;;;;;;;3.25;1.48;;;10.70;99.90;;;;;;5053551;28;20036;-51
2022/11/07 10:51:48;;;;;;;1.63;1.20;;;10.80;99.90;;;;;;5052976;28;20068;-53
2022/11/07 10:54:30;;;;;;;1.65;1.17;;;10.90;99.90;;;;;;5046440;28;20087;-50
2022/11/07 10:57:14;;;;;;;5.80;1.70;;;10.80;99.90;;;;;;5023900;28;20068;-48
2022/11/07 11:00:02;;;;;;;4.55;1.67;;;10.70;99.90;;;;;;5030713;28;20096;-51
2022/11/07 11:02:46;;;;;;;4.10;1.30;;;10.80;99.90;;;;;;5013352;28;20041;-51
2022/11/07 11:05:21;;;;;;;3.47;1.55;;;10.80;99.90;;;;;;5021744;28;20045;-52
2022/11/07 11:07:48;;;;;;;4.68;1.70;;;10.80;99.90;;;;;;5033503;28;20140;-50
2022/11/07 11:10:29;;;;;;;1.67;1.08;;;10.90;99.90;;;;;;5033465;28;20083;-50
2022/11/07 11:12:56;;;;;;;3.08;1.40;;;11.10;99.90;;;;;;5036634;28;20480;-51
2022/11/07 11:15:25;;;;;;;2.65;1.63;;;11.30;99.90;;;;;;5052916;28;20037;-50
2022/11/07 11:18:01;;;;;;;3.20;1.40;;;11.50;99.90;;;;;;5053128;28;20485;-48
2022/11/07 11:20:38;;;;;;;3.35;1.40;;;11.70;99.90;;;;;;5053389;28;20470;-49
2022/11/07 11:23:17;;;;;;;4.05;1.13;;;11.90;99.90;;;;;;5037294;28;20045;-51
2022/11/07 11:25:46;;;;;;;2.55;1.40;;;11.90;99.90;;;;;;5007193;28;20425;-51
2022/11/07 11:28:37;;;;;;;4.18;1.85;;;12.00;99.90;;;;;;5033192;28;20087;-49
2022/11/07 11:31:14;;;;;;;1.92;1.13;;;11.90;99.90;;;;;;5037681;28;20449;-52
2022/11/07 11:33:42;;;;;;;3.70;1.67;;;11.70;99.90;;;;;;5052297;28;20477;-50
2022/11/07 11:36:15;;;;;;;2.72;1.33;;;11.50;99.90;;;;;;5051134;28;20466;-52
2022/11/07 11:38:51;;;;;;;1.85;1.10;;;11.50;99.90;;;;;;5052805;28;20068;-50
2022/11/07 11:41:33;;;;;;;1.95;1.23;;;11.50;99.90;;;;;;5033936;28;20038;-49
2022/11/07 11:44:13;;;;;;;2.13;1.00;;;11.80;99.90;;;;;;5013066;28;20076;-50
2022/11/07 11:47:11;;;;;;;3.00;1.15;;;11.90;99.90;;;;;;5012925;28;20088;-50
2022/11/07 11:49:59;;;;;;;3.20;1.00;;;12.00;99.90;;;;;;5041076;28;20045;-51
2022/11/07 11:52:28;;;;;;;2.42;1.30;;;12.10;99.90;;;;;;5051891;28;20040;-51
2022/11/07 11:54:56;;;;;;;1.63;1.10;;;12.00;99.90;;;;;;5052443;28;20064;-52
2022/11/07 11:57:31;;;;;;;2.03;1.20;;;11.90;99.90;;;;;;5042684;28;20070;-50
2022/11/07 12:00:14;;;;;;;4.63;1.25;;;12.00;99.90;;;;;;5052328;28;20088;-50
2022/11/07 12:03:05;;;;;;;1.83;1.20;;;12.00;99.90;;;;;;5051793;28;20075;-49
2022/11/07 12:05:50;;;;;;;2.80;1.30;;;12.20;99.90;;;;;;5040685;28;20132;-49
2022/11/07 12:08:26;;;;;;;3.40;1.30;;;12.20;99.90;;;;;;5024317;28;20560;-52
2022/11/07 12:11:48;;;;;;;5.00;1.33;;;12.10;99.90;;;;;;5012259;28;20080;-50
2022/11/07 12:14:36;;;;;;;3.65;1.50;;;12.10;99.90;;;;;;5007115;28;20149;-48
2022/11/07 12:17:06;;;;;;;4.22;1.02;;;12.10;99.90;;;;;;5050922;28;20537;-50
2022/11/07 12:19:48;;;;;;;1.80;1.17;;;12.20;99.90;;;;;;5052124;28;20136;-50
2022/11/07 12:22:52;;;;;;;1.55;1.10;;;12.20;99.90;;;;;;5035759;28;20099;-49
2022/11/07 12:25:51;;;;;;;2.42;1.20;;;12.20;99.90;;;;;;5028668;28;20045;-49
2022/11/07 12:28:29;;;;;;;;;;;12.30;99.90;;;;;;5032273;28;20049;-49
2022/11/07 12:31:22;;;;;;;2.47;1.20;;;12.50;99.90;;;;;;5029609;28;19963;-53
2022/11/07 12:34:12;;;;;;;4.60;1.30;;;12.50;99.90;;;;;;5051325;28;20072;-50
2022/11/07 12:37:12;;;;;;;2.13;1.35;;;12.40;99.90;;;;;;5043495;28;20464;-50
2022/11/07 12:39:50;;;;;;;1.77;1.20;;;12.50;99.90;;;;;;5043487;28;20111;-50
2022/11/07 12:42:44;;;;;;;1.92;1.30;;;12.50;99.90;;;;;;5050162;28;20307;-48
2022/11/07 12:45:39;;;;;;;2.65;1.35;;;12.40;99.90;;;;;;5051900;28;20554;-48
2022/11/07 12:48:35;;;;;;;5.70;1.35;;;12.50;99.90;;;;;;5040520;28;20076;-49
2022/11/07 12:51:31;;;;;;;2.00;1.15;;;12.50;99.90;;;;;;5051466;28;20075;-52
2022/11/07 12:54:19;;;;;;;2.33;1.45;;;12.60;99.90;;;;;;5046453;28;20112;-49
2022/11/07 12:56:47;;;;;;;2.88;1.20;;;12.60;99.90;;;;;;5023438;28;20456;-49
2022/11/07 12:59:26;;;;;;;3.83;1.30;;;12.60;99.90;;;;;;5031903;28;20462;-48
2022/11/07 13:01:58;;;;;;;13.25;4.20;;;12.60;99.90;;;;;;5050940;28;20453;-48
2022/11/07 13:04:40;;;;;;;9.23;3.42;;;12.60;99.90;;;;;;5051196;28;20079;-50
2022/11/07 13:07:23;;;;;;;3.45;1.52;;;12.60;99.90;;;;;;5044440;28;20103;-48
2022/11/07 13:10:03;;;;;;;3.90;1.60;;;12.70;99.90;;;;;;5036114;28;20044;-49
2022/11/07 13:12:36;;;;;;;3.10;1.10;;;12.80;99.90;;;;;;5074536;22;20052;-50
2022/11/07 13:15:07;;;;;;;3.05;1.00;;;12.80;99.90;;;;;;5076863;28;20110;-49
2022/11/07 13:17:40;;;;;;;2.20;0.90;;;12.80;99.90;;;;;;5091079;28;20072;-50
2022/11/07 13:20:21;;;;;;;1.67;1.00;;;12.80;99.90;;;;;;5091459;28;20078;-49
2022/11/07 13:22:50;;;;;;;2.70;0.90;;;12.80;99.90;;;;;;5061612;28;20444;-50
2022/11/07 13:25:17;;;;;;;0.80;0.70;;;12.80;99.90;;;;;;5070997;28;20072;-52
2022/11/07 13:28:04;;;;;;;2.35;1.50;;;12.80;99.90;;;;;;5073005;28;20105;-49
2022/11/07 13:30:36;;;;;;;3.17;1.20;;;12.80;99.90;;;;;;5061932;28;20049;-49
2022/11/07 13:33:05;;;;;;;1.58;1.02;;;12.80;99.90;;;;;;5074477;28;20048;-50
2022/11/07 13:35:36;;;;;;;3.70;1.60;;;12.80;99.90;;;;;;5066160;28;20072;-49